sensor_id;sensor_type;location;lat;lon;timestamp;P1;durP1;ratioP1;P2;durP2;ratioP2
44384;SDS011;30101;32.778;34.994;2022-08-01T00:03:39;9.13;;;8.10;;
44384;SDS011;30101;32.778;34.994;2022-08-01T00:08:42;10.40;;;7.85;;
44384;SDS011;30101;32.778;34.994;2022-08-01T00:13:50;8.40;;;7.40;;
44384;SDS011;30101;32.778;34.994;2022-08-01T00:18:59;12.63;;;7.80;;
44384;SDS011;30101;32.778;34.994;2022-08-01T00:24:02;10.05;;;7.93;;
44384;SDS011;30101;32.778;34.994;2022-08-01T00:29:06;14.95;;;8.68;;
44384;SDS011;30101;32.778;34.994;2022-08-01T00:34:30;15.02;;;8.00;;
44384;SDS011;30101;32.778;34.994;2022-08-01T00:39:33;16.58;;;8.50;;
44384;SDS011;30101;32.778;34.994;2022-08-01T00:44:37;11.73;;;7.55;;
44384;SDS011;30101;32.778;34.994;2022-08-01T00:49:41;15.48;;;8.30;;
44384;SDS011;30101;32.778;34.994;2022-08-01T00:54:45;13.45;;;8.93;;
44384;SDS011;30101;32.778;34.994;2022-08-01T00:59:49;13.50;;;7.88;;
44384;SDS011;30101;32.778;34.994;2022-08-01T01:04:54;11.52;;;8.57;;
44384;SDS011;30101;32.778;34.994;2022-08-01T01:10:02;15.75;;;9.40;;
44384;SDS011;30101;32.778;34.994;2022-08-01T01:15:11;11.98;;;8.05;;
44384;SDS011;30101;32.778;34.994;2022-08-01T01:20:37;13.98;;;8.90;;
44384;SDS011;30101;32.778;34.994;2022-08-01T01:31:17;11.23;;;8.75;;
44384;SDS011;30101;32.778;34.994;2022-08-01T01:36:24;11.35;;;8.63;;
44384;SDS011;30101;32.778;34.994;2022-08-01T01:41:30;11.18;;;9.10;;
44384;SDS011;30101;32.778;34.994;2022-08-01T01:46:34;14.10;;;8.85;;
44384;SDS011;30101;32.778;34.994;2022-08-01T01:51:39;10.50;;;8.82;;
44384;SDS011;30101;32.778;34.994;2022-08-01T01:57:04;13.38;;;8.98;;
44384;SDS011;30101;32.778;34.994;2022-08-01T02:02:11;12.73;;;9.45;;
44384;SDS011;30101;32.778;34.994;2022-08-01T02:07:19;10.60;;;8.60;;
44384;SDS011;30101;32.778;34.994;2022-08-01T02:12:25;9.00;;;8.05;;
44384;SDS011;30101;32.778;34.994;2022-08-01T02:17:29;13.88;;;8.20;;
44384;SDS011;30101;32.778;34.994;2022-08-01T02:22:36;16.67;;;9.38;;
44384;SDS011;30101;32.778;34.994;2022-08-01T02:33:22;11.15;;;8.75;;
44384;SDS011;30101;32.778;34.994;2022-08-01T02:38:28;10.60;;;9.07;;
44384;SDS011;30101;32.778;34.994;2022-08-01T02:43:40;16.55;;;9.02;;
44384;SDS011;30101;32.778;34.994;2022-08-01T02:48:55;11.65;;;8.77;;
44384;SDS011;30101;32.778;34.994;2022-08-01T02:54:02;15.07;;;8.93;;
44384;SDS011;30101;32.778;34.994;2022-08-01T02:59:09;17.10;;;9.70;;
44384;SDS011;30101;32.778;34.994;2022-08-01T03:04:16;10.32;;;8.70;;
44384;SDS011;30101;32.778;34.994;2022-08-01T03:09:22;12.90;;;9.27;;
44384;SDS011;30101;32.778;34.994;2022-08-01T03:14:28;15.55;;;9.70;;
44384;SDS011;30101;32.778;34.994;2022-08-01T03:19:34;14.50;;;9.15;;
44384;SDS011;30101;32.778;34.994;2022-08-01T03:24:40;14.93;;;9.23;;
44384;SDS011;30101;32.778;34.994;2022-08-01T03:29:46;14.55;;;10.07;;
44384;SDS011;30101;32.778;34.994;2022-08-01T03:34:51;17.08;;;9.55;;
44384;SDS011;30101;32.778;34.994;2022-08-01T03:39:58;16.10;;;9.57;;
44384;SDS011;30101;32.778;34.994;2022-08-01T03:45:06;16.33;;;10.30;;
44384;SDS011;30101;32.778;34.994;2022-08-01T03:50:15;13.98;;;10.18;;
44384;SDS011;30101;32.778;34.994;2022-08-01T03:55:22;14.20;;;9.95;;
44384;SDS011;30101;32.778;34.994;2022-08-01T04:00:26;16.63;;;10.55;;
44384;SDS011;30101;32.778;34.994;2022-08-01T04:05:30;15.20;;;9.50;;
44384;SDS011;30101;32.778;34.994;2022-08-01T04:10:34;22.88;;;10.35;;
44384;SDS011;30101;32.778;34.994;2022-08-01T04:15:39;13.55;;;10.05;;
44384;SDS011;30101;32.778;34.994;2022-08-01T04:20:42;19.90;;;9.75;;
44384;SDS011;30101;32.778;34.994;2022-08-01T04:25:46;15.05;;;9.82;;
44384;SDS011;30101;32.778;34.994;2022-08-01T04:30:54;14.05;;;9.95;;
44384;SDS011;30101;32.778;34.994;2022-08-01T04:36:03;18.33;;;10.00;;
44384;SDS011;30101;32.778;34.994;2022-08-01T04:41:10;18.75;;;8.52;;
44384;SDS011;30101;32.778;34.994;2022-08-01T04:46:15;18.48;;;9.57;;
44384;SDS011;30101;32.778;34.994;2022-08-01T04:51:24;11.15;;;8.65;;
44384;SDS011;30101;32.778;34.994;2022-08-01T04:56:34;14.40;;;9.48;;
44384;SDS011;30101;32.778;34.994;2022-08-01T05:01:38;22.52;;;9.95;;
44384;SDS011;30101;32.778;34.994;2022-08-01T05:06:43;14.43;;;8.60;;
44384;SDS011;30101;32.778;34.994;2022-08-01T05:11:46;19.30;;;9.20;;
44384;SDS011;30101;32.778;34.994;2022-08-01T05:16:50;13.68;;;9.10;;
44384;SDS011;30101;32.778;34.994;2022-08-01T05:21:53;13.65;;;8.50;;
44384;SDS011;30101;32.778;34.994;2022-08-01T05:27:02;17.58;;;8.40;;
44384;SDS011;30101;32.778;34.994;2022-08-01T05:32:05;10.52;;;8.65;;
44384;SDS011;30101;32.778;34.994;2022-08-01T05:37:09;14.32;;;8.52;;
44384;SDS011;30101;32.778;34.994;2022-08-01T05:42:13;20.05;;;8.50;;
44384;SDS011;30101;32.778;34.994;2022-08-01T05:47:16;12.18;;;8.07;;
44384;SDS011;30101;32.778;34.994;2022-08-01T05:52:20;11.70;;;7.78;;
44384;SDS011;30101;32.778;34.994;2022-08-01T05:57:23;17.33;;;7.85;;
44384;SDS011;30101;32.778;34.994;2022-08-01T06:02:27;13.38;;;8.00;;
44384;SDS011;30101;32.778;34.994;2022-08-01T06:07:31;17.85;;;8.20;;
44384;SDS011;30101;32.778;34.994;2022-08-01T06:12:40;13.77;;;8.65;;
44384;SDS011;30101;32.778;34.994;2022-08-01T06:17:43;14.93;;;7.90;;
44384;SDS011;30101;32.778;34.994;2022-08-01T06:22:47;14.27;;;8.32;;
44384;SDS011;30101;32.778;34.994;2022-08-01T06:27:54;15.52;;;7.43;;
44384;SDS011;30101;32.778;34.994;2022-08-01T06:32:58;12.35;;;5.90;;
44384;SDS011;30101;32.778;34.994;2022-08-01T06:38:02;14.40;;;6.57;;
44384;SDS011;30101;32.778;34.994;2022-08-01T06:43:06;15.27;;;6.97;;
44384;SDS011;30101;32.778;34.994;2022-08-01T06:48:10;10.15;;;6.53;;
44384;SDS011;30101;32.778;34.994;2022-08-01T06:53:14;13.38;;;5.65;;
44384;SDS011;30101;32.778;34.994;2022-08-01T06:58:17;9.98;;;5.60;;
44384;SDS011;30101;32.778;34.994;2022-08-01T07:03:22;13.95;;;5.50;;
44384;SDS011;30101;32.778;34.994;2022-08-01T07:08:26;8.25;;;5.25;;
44384;SDS011;30101;32.778;34.994;2022-08-01T07:13:30;10.50;;;6.75;;
44384;SDS011;30101;32.778;34.994;2022-08-01T07:18:47;13.10;;;5.80;;
44384;SDS011;30101;32.778;34.994;2022-08-01T07:23:51;12.45;;;5.47;;
44384;SDS011;30101;32.778;34.994;2022-08-01T07:28:57;12.90;;;5.63;;
44384;SDS011;30101;32.778;34.994;2022-08-01T07:34:01;9.07;;;5.10;;
44384;SDS011;30101;32.778;34.994;2022-08-01T07:39:05;7.22;;;5.45;;
44384;SDS011;30101;32.778;34.994;2022-08-01T07:44:08;11.93;;;5.75;;
44384;SDS011;30101;32.778;34.994;2022-08-01T07:49:12;9.13;;;5.78;;
44384;SDS011;30101;32.778;34.994;2022-08-01T07:54:15;12.27;;;5.40;;
44384;SDS011;30101;32.778;34.994;2022-08-01T07:59:19;12.15;;;5.28;;
44384;SDS011;30101;32.778;34.994;2022-08-01T08:04:27;8.05;;;4.95;;
44384;SDS011;30101;32.778;34.994;2022-08-01T08:09:31;20.23;;;7.15;;
44384;SDS011;30101;32.778;34.994;2022-08-01T08:14:39;7.90;;;6.13;;
44384;SDS011;30101;32.778;34.994;2022-08-01T08:19:43;8.43;;;5.18;;
44384;SDS011;30101;32.778;34.994;2022-08-01T08:24:47;12.93;;;4.65;;
44384;SDS011;30101;32.778;34.994;2022-08-01T08:29:50;11.55;;;5.45;;
44384;SDS011;30101;32.778;34.994;2022-08-01T08:34:54;15.88;;;5.90;;
44384;SDS011;30101;32.778;34.994;2022-08-01T08:39:57;11.07;;;6.00;;
44384;SDS011;30101;32.778;34.994;2022-08-01T08:45:01;8.68;;;5.78;;
44384;SDS011;30101;32.778;34.994;2022-08-01T08:50:06;11.65;;;5.22;;
44384;SDS011;30101;32.778;34.994;2022-08-01T08:55:10;16.73;;;5.85;;
44384;SDS011;30101;32.778;34.994;2022-08-01T09:00:15;10.73;;;6.28;;
44384;SDS011;30101;32.778;34.994;2022-08-01T09:05:22;16.23;;;6.18;;
44384;SDS011;30101;32.778;34.994;2022-08-01T09:10:45;11.88;;;5.93;;
44384;SDS011;30101;32.778;34.994;2022-08-01T09:15:52;13.50;;;7.40;;
44384;SDS011;30101;32.778;34.994;2022-08-01T09:21:10;12.75;;;6.25;;
44384;SDS011;30101;32.778;34.994;2022-08-01T09:26:21;9.55;;;6.28;;
44384;SDS011;30101;32.778;34.994;2022-08-01T09:31:40;13.02;;;7.13;;
44384;SDS011;30101;32.778;34.994;2022-08-01T09:36:54;15.20;;;7.00;;
44384;SDS011;30101;32.778;34.994;2022-08-01T09:42:00;14.15;;;6.78;;
44384;SDS011;30101;32.778;34.994;2022-08-01T09:47:05;13.60;;;6.88;;
44384;SDS011;30101;32.778;34.994;2022-08-01T09:52:15;13.82;;;6.47;;
44384;SDS011;30101;32.778;34.994;2022-08-01T09:57:30;12.45;;;7.47;;
44384;SDS011;30101;32.778;34.994;2022-08-01T10:02:35;11.32;;;7.32;;
44384;SDS011;30101;32.778;34.994;2022-08-01T10:07:59;18.13;;;7.30;;
44384;SDS011;30101;32.778;34.994;2022-08-01T10:13:10;11.40;;;7.30;;
44384;SDS011;30101;32.778;34.994;2022-08-01T10:18:16;14.85;;;7.40;;
44384;SDS011;30101;32.778;34.994;2022-08-01T10:23:29;11.95;;;6.60;;
44384;SDS011;30101;32.778;34.994;2022-08-01T10:28:43;11.82;;;6.45;;
44384;SDS011;30101;32.778;34.994;2022-08-01T10:33:50;16.67;;;8.40;;
44384;SDS011;30101;32.778;34.994;2022-08-01T10:38:56;15.05;;;7.93;;
44384;SDS011;30101;32.778;34.994;2022-08-01T10:44:02;19.00;;;9.32;;
44384;SDS011;30101;32.778;34.994;2022-08-01T10:49:10;15.48;;;10.52;;
44384;SDS011;30101;32.778;34.994;2022-08-01T10:54:16;20.00;;;9.37;;
44384;SDS011;30101;32.778;34.994;2022-08-01T10:59:27;18.88;;;10.45;;
44384;SDS011;30101;32.778;34.994;2022-08-01T11:04:55;17.08;;;9.88;;
44384;SDS011;30101;32.778;34.994;2022-08-01T11:10:25;15.38;;;10.32;;
44384;SDS011;30101;32.778;34.994;2022-08-01T11:15:53;15.48;;;10.15;;
44384;SDS011;30101;32.778;34.994;2022-08-01T11:32:26;20.10;;;9.10;;
44384;SDS011;30101;32.778;34.994;2022-08-01T11:37:30;13.00;;;8.23;;
44384;SDS011;30101;32.778;34.994;2022-08-01T11:42:34;17.10;;;8.68;;
44384;SDS011;30101;32.778;34.994;2022-08-01T11:47:48;13.07;;;8.23;;
44384;SDS011;30101;32.778;34.994;2022-08-01T11:52:59;12.68;;;7.85;;
44384;SDS011;30101;32.778;34.994;2022-08-01T11:58:11;18.90;;;8.70;;
44384;SDS011;30101;32.778;34.994;2022-08-01T12:03:30;10.75;;;8.07;;
44384;SDS011;30101;32.778;34.994;2022-08-01T12:08:41;16.35;;;8.45;;
44384;SDS011;30101;32.778;34.994;2022-08-01T12:13:44;17.63;;;7.85;;
44384;SDS011;30101;32.778;34.994;2022-08-01T12:18:48;14.32;;;8.55;;
44384;SDS011;30101;32.778;34.994;2022-08-01T12:24:02;12.15;;;8.88;;
44384;SDS011;30101;32.778;34.994;2022-08-01T12:29:06;15.95;;;8.55;;
44384;SDS011;30101;32.778;34.994;2022-08-01T12:34:25;13.60;;;9.25;;
44384;SDS011;30101;32.778;34.994;2022-08-01T12:39:31;11.23;;;9.73;;
44384;SDS011;30101;32.778;34.994;2022-08-01T12:44:35;17.20;;;9.32;;
44384;SDS011;30101;32.778;34.994;2022-08-01T12:49:41;15.95;;;9.88;;
44384;SDS011;30101;32.778;34.994;2022-08-01T13:00:16;12.57;;;8.20;;
44384;SDS011;30101;32.778;34.994;2022-08-01T13:05:24;15.20;;;10.20;;
44384;SDS011;30101;32.778;34.994;2022-08-01T13:10:29;21.83;;;12.63;;
44384;SDS011;30101;32.778;34.994;2022-08-01T13:15:34;14.45;;;12.90;;
44384;SDS011;30101;32.778;34.994;2022-08-01T13:20:43;15.73;;;11.18;;
44384;SDS011;30101;32.778;34.994;2022-08-01T13:25:54;18.70;;;12.85;;
44384;SDS011;30101;32.778;34.994;2022-08-01T13:30:59;18.08;;;12.80;;
44384;SDS011;30101;32.778;34.994;2022-08-01T13:36:03;18.80;;;13.27;;
44384;SDS011;30101;32.778;34.994;2022-08-01T13:41:07;17.45;;;13.27;;
44384;SDS011;30101;32.778;34.994;2022-08-01T13:46:11;16.40;;;12.05;;
44384;SDS011;30101;32.778;34.994;2022-08-01T13:51:20;22.23;;;14.60;;
44384;SDS011;30101;32.778;34.994;2022-08-01T13:56:24;22.27;;;13.23;;
44384;SDS011;30101;32.778;34.994;2022-08-01T14:01:29;17.58;;;13.95;;
44384;SDS011;30101;32.778;34.994;2022-08-01T14:06:36;18.52;;;14.23;;
44384;SDS011;30101;32.778;34.994;2022-08-01T14:11:40;18.88;;;14.82;;
44384;SDS011;30101;32.778;34.994;2022-08-01T14:16:47;23.50;;;16.08;;
44384;SDS011;30101;32.778;34.994;2022-08-01T14:21:52;22.38;;;15.73;;
44384;SDS011;30101;32.778;34.994;2022-08-01T14:26:56;23.20;;;14.88;;
44384;SDS011;30101;32.778;34.994;2022-08-01T14:32:00;20.60;;;15.30;;
44384;SDS011;30101;32.778;34.994;2022-08-01T14:37:04;22.58;;;14.70;;
44384;SDS011;30101;32.778;34.994;2022-08-01T14:42:09;19.73;;;15.55;;
44384;SDS011;30101;32.778;34.994;2022-08-01T14:47:14;20.98;;;17.90;;
44384;SDS011;30101;32.778;34.994;2022-08-01T14:52:24;23.10;;;16.58;;
44384;SDS011;30101;32.778;34.994;2022-08-01T14:57:28;21.88;;;16.67;;
44384;SDS011;30101;32.778;34.994;2022-08-01T15:02:32;26.88;;;17.70;;
44384;SDS011;30101;32.778;34.994;2022-08-01T15:07:35;22.38;;;18.75;;
44384;SDS011;30101;32.778;34.994;2022-08-01T15:12:54;20.17;;;16.88;;
44384;SDS011;30101;32.778;34.994;2022-08-01T15:17:58;22.65;;;16.10;;
44384;SDS011;30101;32.778;34.994;2022-08-01T15:23:02;20.50;;;17.63;;
44384;SDS011;30101;32.778;34.994;2022-08-01T15:28:05;23.15;;;17.15;;
44384;SDS011;30101;32.778;34.994;2022-08-01T15:33:09;18.85;;;14.80;;
44384;SDS011;30101;32.778;34.994;2022-08-01T15:38:12;22.67;;;16.73;;
44384;SDS011;30101;32.778;34.994;2022-08-01T15:43:15;21.23;;;17.20;;
44384;SDS011;30101;32.778;34.994;2022-08-01T15:48:19;25.80;;;17.35;;
44384;SDS011;30101;32.778;34.994;2022-08-01T15:53:22;20.52;;;16.17;;
44384;SDS011;30101;32.778;34.994;2022-08-01T15:58:26;22.80;;;16.55;;
44384;SDS011;30101;32.778;34.994;2022-08-01T16:03:29;23.75;;;15.30;;
44384;SDS011;30101;32.778;34.994;2022-08-01T16:08:35;22.63;;;15.45;;
44384;SDS011;30101;32.778;34.994;2022-08-01T16:13:38;22.80;;;16.13;;
44384;SDS011;30101;32.778;34.994;2022-08-01T16:18:42;23.48;;;18.13;;
44384;SDS011;30101;32.778;34.994;2022-08-01T16:23:46;28.85;;;18.70;;
44384;SDS011;30101;32.778;34.994;2022-08-01T16:28:50;26.13;;;17.85;;
44384;SDS011;30101;32.778;34.994;2022-08-01T16:33:53;23.20;;;17.38;;
44384;SDS011;30101;32.778;34.994;2022-08-01T16:39:03;24.55;;;18.05;;
44384;SDS011;30101;32.778;34.994;2022-08-01T16:44:07;24.67;;;18.98;;
44384;SDS011;30101;32.778;34.994;2022-08-01T16:49:15;26.23;;;19.40;;
44384;SDS011;30101;32.778;34.994;2022-08-01T16:54:18;32.10;;;21.20;;
44384;SDS011;30101;32.778;34.994;2022-08-01T16:59:28;23.88;;;21.38;;
44384;SDS011;30101;32.778;34.994;2022-08-01T17:04:37;28.25;;;20.70;;
44384;SDS011;30101;32.778;34.994;2022-08-01T17:09:43;31.90;;;21.65;;
44384;SDS011;30101;32.778;34.994;2022-08-01T17:14:46;26.08;;;20.98;;
44384;SDS011;30101;32.778;34.994;2022-08-01T17:19:50;30.02;;;22.92;;
44384;SDS011;30101;32.778;34.994;2022-08-01T17:24:54;26.48;;;23.33;;
44384;SDS011;30101;32.778;34.994;2022-08-01T17:29:58;23.98;;;21.50;;
44384;SDS011;30101;32.778;34.994;2022-08-01T17:35:02;30.77;;;23.45;;
44384;SDS011;30101;32.778;34.994;2022-08-01T17:40:06;28.17;;;23.13;;
44384;SDS011;30101;32.778;34.994;2022-08-01T17:45:30;26.80;;;23.60;;
44384;SDS011;30101;32.778;34.994;2022-08-01T17:50:42;24.95;;;22.25;;
44384;SDS011;30101;32.778;34.994;2022-08-01T17:55:47;29.73;;;22.50;;
44384;SDS011;30101;32.778;34.994;2022-08-01T18:06:02;31.90;;;22.33;;
44384;SDS011;30101;32.778;34.994;2022-08-01T18:11:06;26.70;;;22.88;;
44384;SDS011;30101;32.778;34.994;2022-08-01T18:16:11;27.67;;;23.13;;
44384;SDS011;30101;32.778;34.994;2022-08-01T18:21:15;28.33;;;23.33;;
44384;SDS011;30101;32.778;34.994;2022-08-01T18:26:19;24.63;;;22.10;;
44384;SDS011;30101;32.778;34.994;2022-08-01T18:31:23;26.60;;;22.08;;
44384;SDS011;30101;32.778;34.994;2022-08-01T18:36:27;25.00;;;22.20;;
44384;SDS011;30101;32.778;34.994;2022-08-01T18:41:36;29.27;;;20.92;;
44384;SDS011;30101;32.778;34.994;2022-08-01T18:46:40;27.30;;;21.92;;
44384;SDS011;30101;32.778;34.994;2022-08-01T18:51:44;25.90;;;21.63;;
44384;SDS011;30101;32.778;34.994;2022-08-01T18:56:54;24.42;;;20.33;;
44384;SDS011;30101;32.778;34.994;2022-08-01T19:01:58;22.13;;;19.77;;
44384;SDS011;30101;32.778;34.994;2022-08-01T19:07:03;30.60;;;18.80;;
44384;SDS011;30101;32.778;34.994;2022-08-01T19:12:07;28.20;;;18.45;;
44384;SDS011;30101;32.778;34.994;2022-08-01T19:17:11;21.30;;;18.35;;
44384;SDS011;30101;32.778;34.994;2022-08-01T19:22:15;24.77;;;17.83;;
44384;SDS011;30101;32.778;34.994;2022-08-01T19:27:18;19.98;;;16.55;;
44384;SDS011;30101;32.778;34.994;2022-08-01T19:32:28;19.08;;;15.63;;
44384;SDS011;30101;32.778;34.994;2022-08-01T19:37:32;21.70;;;15.25;;
44384;SDS011;30101;32.778;34.994;2022-08-01T19:42:38;17.40;;;15.18;;
44384;SDS011;30101;32.778;34.994;2022-08-01T19:47:43;21.20;;;15.80;;
44384;SDS011;30101;32.778;34.994;2022-08-01T19:53:00;21.90;;;15.90;;
44384;SDS011;30101;32.778;34.994;2022-08-01T19:58:05;23.67;;;17.52;;
44384;SDS011;30101;32.778;34.994;2022-08-01T20:03:28;20.75;;;16.27;;
44384;SDS011;30101;32.778;34.994;2022-08-01T20:08:35;18.20;;;14.48;;
44384;SDS011;30101;32.778;34.994;2022-08-01T20:13:39;24.77;;;17.63;;
44384;SDS011;30101;32.778;34.994;2022-08-01T20:18:43;18.42;;;15.00;;
44384;SDS011;30101;32.778;34.994;2022-08-01T20:23:46;24.00;;;16.75;;
44384;SDS011;30101;32.778;34.994;2022-08-01T20:28:53;18.10;;;13.18;;
44384;SDS011;30101;32.778;34.994;2022-08-01T20:33:58;23.00;;;14.55;;
44384;SDS011;30101;32.778;34.994;2022-08-01T20:39:02;22.52;;;14.10;;
44384;SDS011;30101;32.778;34.994;2022-08-01T20:44:06;22.35;;;13.07;;
44384;SDS011;30101;32.778;34.994;2022-08-01T20:49:11;24.25;;;14.15;;
44384;SDS011;30101;32.778;34.994;2022-08-01T20:54:15;19.70;;;12.75;;
44384;SDS011;30101;32.778;34.994;2022-08-01T20:59:23;18.23;;;13.98;;
44384;SDS011;30101;32.778;34.994;2022-08-01T21:05:00;19.77;;;12.85;;
44384;SDS011;30101;32.778;34.994;2022-08-01T21:10:06;16.23;;;12.15;;
44384;SDS011;30101;32.778;34.994;2022-08-01T21:15:31;14.77;;;12.07;;
44384;SDS011;30101;32.778;34.994;2022-08-01T21:21:03;21.77;;;11.45;;
44384;SDS011;30101;32.778;34.994;2022-08-01T21:26:18;13.48;;;10.85;;
44384;SDS011;30101;32.778;34.994;2022-08-01T21:31:22;21.92;;;12.10;;
44384;SDS011;30101;32.778;34.994;2022-08-01T21:36:42;16.30;;;10.38;;
44384;SDS011;30101;32.778;34.994;2022-08-01T21:41:47;14.02;;;9.68;;
44384;SDS011;30101;32.778;34.994;2022-08-01T21:47:07;15.40;;;9.55;;
44384;SDS011;30101;32.778;34.994;2022-08-01T21:52:15;14.10;;;9.40;;
44384;SDS011;30101;32.778;34.994;2022-08-01T22:08:10;18.52;;;9.32;;
44384;SDS011;30101;32.778;34.994;2022-08-01T22:13:15;13.73;;;9.07;;
44384;SDS011;30101;32.778;34.994;2022-08-01T22:18:19;13.88;;;8.85;;
44384;SDS011;30101;32.778;34.994;2022-08-01T22:23:22;20.42;;;9.35;;
44384;SDS011;30101;32.778;34.994;2022-08-01T22:28:26;12.80;;;8.68;;
44384;SDS011;30101;32.778;34.994;2022-08-01T22:33:33;16.08;;;9.52;;
44384;SDS011;30101;32.778;34.994;2022-08-01T22:38:37;11.63;;;8.30;;
44384;SDS011;30101;32.778;34.994;2022-08-01T22:43:41;15.05;;;8.63;;
44384;SDS011;30101;32.778;34.994;2022-08-01T22:54:36;16.30;;;8.35;;
44384;SDS011;30101;32.778;34.994;2022-08-01T23:05:03;15.10;;;8.43;;
44384;SDS011;30101;32.778;34.994;2022-08-01T23:10:08;16.60;;;7.95;;
44384;SDS011;30101;32.778;34.994;2022-08-01T23:15:12;11.52;;;8.00;;
44384;SDS011;30101;32.778;34.994;2022-08-01T23:20:16;14.02;;;8.38;;
44384;SDS011;30101;32.778;34.994;2022-08-01T23:25:20;10.35;;;8.05;;
44384;SDS011;30101;32.778;34.994;2022-08-01T23:30:26;13.32;;;8.32;;
44384;SDS011;30101;32.778;34.994;2022-08-01T23:35:32;15.25;;;8.07;;
44384;SDS011;30101;32.778;34.994;2022-08-01T23:40:40;15.98;;;7.25;;
44384;SDS011;30101;32.778;34.994;2022-08-01T23:45:45;14.50;;;7.93;;
44384;SDS011;30101;32.778;34.994;2022-08-01T23:51:06;12.95;;;8.20;;
44384;SDS011;30101;32.778;34.994;2022-08-01T23:56:13;11.68;;;6.72;;
